Nearby METAR Reports

 

EGNM - Leeds And Bradford, United Kingdom
Distance from station: N 11mi, 18km
Updated: 06/04/2020 14:50
Few Clouds
Few Clouds
 Wind from WSW
Wind: WSW 20 mph , 31 km/h
Temperature: 13°C
Dew Point: 0°C
Humidity: 41%
Barometer: 1017 hPa
Clouds: Few Clouds
Visibility: 6 miles , 10 km
Cloud details: Few Clouds 1372 m
2020/04/06 14:50 EGNM 061450Z 24017KT 9999 FEW045 13/M00 Q1017
EGXU - Linton-On-Ouse, United Kingdom
Distance from station: NNE 28mi, 45km
Updated: 06/04/2020 14:50
Few Clouds
Few Clouds
 Wind from W
Wind: W 16 mph , 26 km/h
Temperature: 15°C
Dew Point: 1°C
Humidity: 39%
Barometer: 1017 hPa
Clouds: Few Clouds
Visibility: 6 miles , 10 km
Cloud details: Few Clouds 1524 m
2020/04/06 14:50 EGXU 061450Z AUTO 27014KT 9999 FEW050/// 15/01 Q1017
 
EGCN - Doncaster Sheffield, United Kingdom
Distance from station: ESE 30mi, 45km
Updated: 06/04/2020 15:20
Clear
Clear
 Wind from W
Wind: W 14 mph , 22 km/h
Temperature: 15°C
Dew Point: 4°C
Humidity: 48%
Barometer: 1019 hPa
Summary: Clear
Visibility: greater than 7 miles , 10 km
2020/04/06 15:20 EGCN 061520Z 27012KT CAVOK 15/04 Q1019
EGXZ - Topcliffe RAF, United Kingdom
Distance from station: NNE 36mi, 57km
Updated: 06/04/2020 14:50
Clear
Clear
 Wind from WSW
Wind: WSW 18 mph , 30 km/h
Temperature: 14°C
Dew Point: 1°C
Humidity: 41%
Barometer: 1017 hPa
Clouds: Clear
Visibility: 6 miles , 10 km
2020/04/06 14:50 EGXZ 061450Z AUTO 25016KT 9999 NCD 14/01 Q1017
 
EGCC - Manchester Intl, United Kingdom
Distance from station: SW 36mi, 58km
Updated: 06/04/2020 15:20
Partly cloudy
Partly cloudy
 Wind from W
Wind: W 14 mph , 22 km/h
Temperature: 14°C
Dew Point: 3°C
Humidity: 48%
Barometer: 1019 hPa
Clouds: Partly cloudy
Visibility: 6 miles , 10 km
Cloud details: Partly cloudy 1341 m
2020/04/06 15:20 EGCC 061520Z AUTO 28012KT 9999 SCT044 14/03 Q1019
EGXE - Leeming RAF, United Kingdom
Distance from station: N 40mi, 65km
Updated: 06/04/2020 14:50
Clear
Clear
 Wind from WSW
Wind: WSW 18 mph , 30 km/h
Temperature: 14°C
Dew Point: 3°C
Humidity: 48%
Barometer: 1017 hPa
Summary: Clear
Visibility: greater than 7 miles , 10 km
2020/04/06 14:50 EGXE 061450Z 25016KT CAVOK 14/03 Q1017 NOSIG RMK BLU BLU